LICR/REG METAR and TAF weather

Enter ICAO airport designator
Station Type Date Time Source
LICR METAR 2021/01/17 19:20 UTC NOAA

LICR 171920Z AUTO 13005KT 050V180 6000 DZ OVC034/// 09/07 Q1011 RERA


Station Type Date Time Source
LICR Decoded METAR 2021/01/17 19:20 UTC NOAA

Reggio Calabria, Italy (LICR) 38-04N 015-39E 21M
Jan 17, 2021 - 02:20 PM EST / 2021.01.17 1920 UTC
Wind: from the SE (130 degrees) at 6 MPH (5 KT) (direction variable):0
Visibility: 3 mile(s):0
Sky conditions: overcast
Weather: drizzle
Temperature: 48 F (9 C)
Dew Point: 44 F (7 C)
Relative Humidity: 87%
Pressure (altimeter): 29.85 in. Hg (1011 hPa)
ob: LICR 171920Z AUTO 13005KT 050V180 6000 DZ OVC034/// 09/07 Q1011 RERA
cycle: 19

Station Type Date Time Source
LICR TAF 2021/01/17 18:22 UTC NOAA

TAF LICR 171700Z 1718/1818 33012KT 9999 SCT030
TEMPO 1718/1809 RA

Example: see airport list